Main page
METAR-TAF:

METAR-TAF

Airports :

Andorra–La Seu d'Urgell Airport

La Seu d'Urgell, Spain

latitude: 42-20-29N, longitude: 001-24-17E, elevation: 802 m

Current weather observation

The report was made 33 minutes ago, at 15:00 UTC
Wind 11 kt from the Southwest
Temperature 17°C
Humidity 42%
Pressure 1017 hPa
Visibility 10 km or more
Few clouds at a height of 5000 ft

METAR: LESU 041500Z 22011KT 9999 FEW050 17/04 Q1017

Time: 17:33 (15:33 UTC)

Forecast

The report was made 1 hour and 33 minutes ago, at 14:00 UTC
Forecast valid from 04 at 15 UTC to 05 at 15 UTC
Wind 10 kt from the Southwest
Visibility 10 km or more
Few clouds at a height of 5000 ft
Becoming
from 04 at 18 UTC to 04 at 20 UTC
Wind 3 kt from variable directions
Becoming
from 05 at 10 UTC to 05 at 12 UTC
Wind 10 kt from the Southwest

TAF: LESU 041400Z 0415/0515 22010KT 9999 FEW050 TX18/0514Z TNM01/0506Z BECMG 0418/0420 VRB03KT BECMG 0510/0512 22010KT

Weather observations and forecasts of more than 4000 airports (METAR and TAF reports).

The available stations are represented by yellow and red dots on the map.

Hover mouse over dot to see the name of the station.

Then click to see weather observations and forecasts.

To change the map : click on the green buttons with a black cross to zoom in, on the green button with a dash to zoom out, or on the green arrows for adjacent maps.


METAR-TAF: